sensor_id;sensor_type;location;lat;lon;timestamp;P1;durP1;ratioP1;P2;durP2;ratioP2
18320;SDS011;54904;54.350;18.664;2022-12-19T00:01:14;64.33;;;19.37;;
18320;SDS011;54904;54.350;18.664;2022-12-19T00:03:44;55.53;;;17.47;;
18320;SDS011;54904;54.350;18.664;2022-12-19T00:06:11;70.70;;;20.50;;
18320;SDS011;54904;54.350;18.664;2022-12-19T00:08:39;74.07;;;21.20;;
18320;SDS011;54904;54.350;18.664;2022-12-19T00:11:09;66.83;;;19.60;;
18320;SDS011;54904;54.350;18.664;2022-12-19T00:13:38;64.23;;;20.27;;
18320;SDS011;54904;54.350;18.664;2022-12-19T00:16:06;72.53;;;19.83;;
18320;SDS011;54904;54.350;18.664;2022-12-19T00:18:34;62.93;;;19.83;;
18320;SDS011;54904;54.350;18.664;2022-12-19T00:21:03;56.63;;;17.40;;
18320;SDS011;54904;54.350;18.664;2022-12-19T00:23:31;63.63;;;18.10;;
18320;SDS011;54904;54.350;18.664;2022-12-19T00:26:07;58.73;;;17.87;;
18320;SDS011;54904;54.350;18.664;2022-12-19T00:28:40;55.73;;;17.57;;
18320;SDS011;54904;54.350;18.664;2022-12-19T00:31:08;53.73;;;16.73;;
18320;SDS011;54904;54.350;18.664;2022-12-19T00:33:38;54.00;;;17.40;;
18320;SDS011;54904;54.350;18.664;2022-12-19T00:36:07;59.20;;;17.73;;
18320;SDS011;54904;54.350;18.664;2022-12-19T00:38:37;56.20;;;17.23;;
18320;SDS011;54904;54.350;18.664;2022-12-19T00:41:07;64.70;;;18.87;;
18320;SDS011;54904;54.350;18.664;2022-12-19T00:43:37;57.87;;;17.73;;
18320;SDS011;54904;54.350;18.664;2022-12-19T00:46:05;56.30;;;16.60;;
18320;SDS011;54904;54.350;18.664;2022-12-19T00:48:33;57.20;;;17.83;;
18320;SDS011;54904;54.350;18.664;2022-12-19T00:51:01;51.53;;;17.30;;
18320;SDS011;54904;54.350;18.664;2022-12-19T00:53:30;50.30;;;15.90;;
18320;SDS011;54904;54.350;18.664;2022-12-19T00:56:00;64.90;;;17.87;;
18320;SDS011;54904;54.350;18.664;2022-12-19T00:58:27;56.57;;;17.57;;
18320;SDS011;54904;54.350;18.664;2022-12-19T01:00:56;62.60;;;18.33;;
18320;SDS011;54904;54.350;18.664;2022-12-19T01:03:23;58.73;;;18.13;;
18320;SDS011;54904;54.350;18.664;2022-12-19T01:05:51;59.23;;;18.67;;
18320;SDS011;54904;54.350;18.664;2022-12-19T01:08:18;62.70;;;17.20;;
18320;SDS011;54904;54.350;18.664;2022-12-19T01:10:48;65.03;;;19.77;;
18320;SDS011;54904;54.350;18.664;2022-12-19T01:13:17;64.43;;;19.57;;
18320;SDS011;54904;54.350;18.664;2022-12-19T01:15:44;66.07;;;19.07;;
18320;SDS011;54904;54.350;18.664;2022-12-19T01:18:13;55.33;;;16.93;;
18320;SDS011;54904;54.350;18.664;2022-12-19T01:20:41;52.27;;;16.57;;
18320;SDS011;54904;54.350;18.664;2022-12-19T01:23:12;50.27;;;14.40;;
18320;SDS011;54904;54.350;18.664;2022-12-19T01:25:40;60.13;;;17.43;;
18320;SDS011;54904;54.350;18.664;2022-12-19T01:28:10;62.97;;;19.10;;
18320;SDS011;54904;54.350;18.664;2022-12-19T01:30:41;58.00;;;17.63;;
18320;SDS011;54904;54.350;18.664;2022-12-19T01:33:08;64.27;;;18.70;;
18320;SDS011;54904;54.350;18.664;2022-12-19T01:35:38;55.57;;;18.10;;
18320;SDS011;54904;54.350;18.664;2022-12-19T01:38:06;57.97;;;18.30;;
18320;SDS011;54904;54.350;18.664;2022-12-19T01:40:35;61.93;;;18.43;;
18320;SDS011;54904;54.350;18.664;2022-12-19T01:43:03;63.70;;;18.37;;
18320;SDS011;54904;54.350;18.664;2022-12-19T01:45:31;65.97;;;18.87;;
18320;SDS011;54904;54.350;18.664;2022-12-19T01:48:01;67.40;;;18.63;;
18320;SDS011;54904;54.350;18.664;2022-12-19T01:50:55;61.13;;;17.27;;
18320;SDS011;54904;54.350;18.664;2022-12-19T01:53:26;64.83;;;19.63;;
18320;SDS011;54904;54.350;18.664;2022-12-19T01:56:02;59.40;;;17.53;;
18320;SDS011;54904;54.350;18.664;2022-12-19T01:58:33;66.67;;;19.27;;
18320;SDS011;54904;54.350;18.664;2022-12-19T02:03:46;60.20;;;19.40;;
18320;SDS011;54904;54.350;18.664;2022-12-19T02:06:15;67.33;;;18.60;;
18320;SDS011;54904;54.350;18.664;2022-12-19T02:08:43;65.83;;;18.97;;
18320;SDS011;54904;54.350;18.664;2022-12-19T02:11:12;68.57;;;19.37;;
18320;SDS011;54904;54.350;18.664;2022-12-19T02:13:39;68.03;;;20.20;;
18320;SDS011;54904;54.350;18.664;2022-12-19T02:16:08;76.47;;;21.63;;
18320;SDS011;54904;54.350;18.664;2022-12-19T02:18:45;67.47;;;19.90;;
18320;SDS011;54904;54.350;18.664;2022-12-19T02:21:38;66.43;;;19.10;;
18320;SDS011;54904;54.350;18.664;2022-12-19T02:24:24;58.73;;;18.53;;
18320;SDS011;54904;54.350;18.664;2022-12-19T02:27:17;61.77;;;19.80;;
18320;SDS011;54904;54.350;18.664;2022-12-19T02:30:07;61.33;;;18.07;;
18320;SDS011;54904;54.350;18.664;2022-12-19T02:32:51;53.23;;;16.87;;
18320;SDS011;54904;54.350;18.664;2022-12-19T02:35:29;54.30;;;17.23;;
18320;SDS011;54904;54.350;18.664;2022-12-19T02:38:09;54.37;;;17.70;;
18320;SDS011;54904;54.350;18.664;2022-12-19T02:40:41;48.57;;;14.30;;
18320;SDS011;54904;54.350;18.664;2022-12-19T02:43:15;52.33;;;17.57;;
18320;SDS011;54904;54.350;18.664;2022-12-19T02:45:44;63.33;;;18.77;;
18320;SDS011;54904;54.350;18.664;2022-12-19T02:48:14;58.37;;;17.27;;
18320;SDS011;54904;54.350;18.664;2022-12-19T02:50:43;51.30;;;17.73;;
18320;SDS011;54904;54.350;18.664;2022-12-19T02:53:12;65.47;;;18.70;;
18320;SDS011;54904;54.350;18.664;2022-12-19T02:55:42;61.43;;;18.00;;
18320;SDS011;54904;54.350;18.664;2022-12-19T02:58:38;63.90;;;19.57;;
18320;SDS011;54904;54.350;18.664;2022-12-19T03:01:20;59.87;;;18.97;;
18320;SDS011;54904;54.350;18.664;2022-12-19T03:04:02;61.07;;;18.67;;
18320;SDS011;54904;54.350;18.664;2022-12-19T03:06:33;56.07;;;18.33;;
18320;SDS011;54904;54.350;18.664;2022-12-19T03:09:09;59.40;;;18.97;;
18320;SDS011;54904;54.350;18.664;2022-12-19T03:11:41;61.97;;;18.00;;
18320;SDS011;54904;54.350;18.664;2022-12-19T03:14:10;50.73;;;17.00;;
18320;SDS011;54904;54.350;18.664;2022-12-19T03:16:39;59.27;;;18.40;;
18320;SDS011;54904;54.350;18.664;2022-12-19T03:19:09;55.47;;;18.07;;
18320;SDS011;54904;54.350;18.664;2022-12-19T03:21:39;51.07;;;17.03;;
18320;SDS011;54904;54.350;18.664;2022-12-19T03:24:09;54.37;;;18.03;;
18320;SDS011;54904;54.350;18.664;2022-12-19T03:26:44;43.17;;;15.17;;
18320;SDS011;54904;54.350;18.664;2022-12-19T03:29:14;49.13;;;16.73;;
18320;SDS011;54904;54.350;18.664;2022-12-19T03:31:46;52.43;;;16.57;;
18320;SDS011;54904;54.350;18.664;2022-12-19T03:34:16;45.43;;;16.30;;
18320;SDS011;54904;54.350;18.664;2022-12-19T03:36:47;49.63;;;16.27;;
18320;SDS011;54904;54.350;18.664;2022-12-19T03:39:20;47.50;;;15.60;;
18320;SDS011;54904;54.350;18.664;2022-12-19T03:41:49;44.10;;;15.47;;
18320;SDS011;54904;54.350;18.664;2022-12-19T03:44:35;40.67;;;13.63;;
18320;SDS011;54904;54.350;18.664;2022-12-19T03:47:07;40.83;;;14.90;;
18320;SDS011;54904;54.350;18.664;2022-12-19T03:49:38;44.53;;;14.07;;
18320;SDS011;54904;54.350;18.664;2022-12-19T03:52:08;40.73;;;14.77;;
18320;SDS011;54904;54.350;18.664;2022-12-19T03:54:42;42.50;;;14.80;;
18320;SDS011;54904;54.350;18.664;2022-12-19T03:57:18;37.63;;;13.53;;
18320;SDS011;54904;54.350;18.664;2022-12-19T03:59:49;38.13;;;13.90;;
18320;SDS011;54904;54.350;18.664;2022-12-19T04:02:20;46.23;;;14.67;;
18320;SDS011;54904;54.350;18.664;2022-12-19T04:04:51;48.53;;;15.70;;
18320;SDS011;54904;54.350;18.664;2022-12-19T04:07:21;36.27;;;12.60;;
18320;SDS011;54904;54.350;18.664;2022-12-19T04:09:49;41.73;;;14.53;;
18320;SDS011;54904;54.350;18.664;2022-12-19T04:12:20;43.03;;;14.57;;
18320;SDS011;54904;54.350;18.664;2022-12-19T04:14:50;44.37;;;14.57;;
18320;SDS011;54904;54.350;18.664;2022-12-19T04:17:19;38.73;;;14.23;;
18320;SDS011;54904;54.350;18.664;2022-12-19T04:19:55;46.07;;;16.23;;
18320;SDS011;54904;54.350;18.664;2022-12-19T04:22:28;42.47;;;14.40;;
18320;SDS011;54904;54.350;18.664;2022-12-19T04:25:00;43.30;;;15.27;;
18320;SDS011;54904;54.350;18.664;2022-12-19T04:27:30;40.13;;;14.17;;
18320;SDS011;54904;54.350;18.664;2022-12-19T04:29:59;47.97;;;15.13;;
18320;SDS011;54904;54.350;18.664;2022-12-19T04:32:28;46.73;;;16.33;;
18320;SDS011;54904;54.350;18.664;2022-12-19T04:35:00;46.37;;;14.00;;
18320;SDS011;54904;54.350;18.664;2022-12-19T04:37:28;48.33;;;15.80;;
18320;SDS011;54904;54.350;18.664;2022-12-19T04:39:57;39.90;;;14.10;;
18320;SDS011;54904;54.350;18.664;2022-12-19T04:42:24;39.40;;;13.73;;
18320;SDS011;54904;54.350;18.664;2022-12-19T04:44:51;45.20;;;15.60;;
18320;SDS011;54904;54.350;18.664;2022-12-19T04:47:18;48.33;;;15.90;;
18320;SDS011;54904;54.350;18.664;2022-12-19T04:49:45;43.60;;;15.37;;
18320;SDS011;54904;54.350;18.664;2022-12-19T04:52:14;45.33;;;15.97;;
18320;SDS011;54904;54.350;18.664;2022-12-19T04:54:41;44.00;;;15.43;;
18320;SDS011;54904;54.350;18.664;2022-12-19T04:57:08;49.17;;;16.13;;
18320;SDS011;54904;54.350;18.664;2022-12-19T04:59:35;40.77;;;14.03;;
18320;SDS011;54904;54.350;18.664;2022-12-19T05:02:02;43.27;;;14.03;;
18320;SDS011;54904;54.350;18.664;2022-12-19T05:04:32;43.50;;;15.40;;
18320;SDS011;54904;54.350;18.664;2022-12-19T05:06:59;44.03;;;15.57;;
18320;SDS011;54904;54.350;18.664;2022-12-19T05:09:28;51.43;;;16.40;;
18320;SDS011;54904;54.350;18.664;2022-12-19T05:11:55;54.07;;;16.90;;
18320;SDS011;54904;54.350;18.664;2022-12-19T05:14:22;45.03;;;15.73;;
18320;SDS011;54904;54.350;18.664;2022-12-19T05:16:49;53.83;;;18.27;;
18320;SDS011;54904;54.350;18.664;2022-12-19T05:19:16;47.40;;;16.60;;
18320;SDS011;54904;54.350;18.664;2022-12-19T05:21:43;50.20;;;16.20;;
18320;SDS011;54904;54.350;18.664;2022-12-19T05:24:10;46.27;;;16.33;;
18320;SDS011;54904;54.350;18.664;2022-12-19T05:26:39;48.53;;;16.90;;
18320;SDS011;54904;54.350;18.664;2022-12-19T05:29:06;46.93;;;17.30;;
18320;SDS011;54904;54.350;18.664;2022-12-19T05:31:33;48.23;;;16.10;;
18320;SDS011;54904;54.350;18.664;2022-12-19T05:34:00;56.33;;;19.80;;
18320;SDS011;54904;54.350;18.664;2022-12-19T05:36:27;55.07;;;18.93;;
18320;SDS011;54904;54.350;18.664;2022-12-19T05:38:54;60.87;;;19.20;;
18320;SDS011;54904;54.350;18.664;2022-12-19T05:41:22;52.50;;;17.23;;
18320;SDS011;54904;54.350;18.664;2022-12-19T05:43:51;54.80;;;18.47;;
18320;SDS011;54904;54.350;18.664;2022-12-19T05:46:19;48.13;;;16.97;;
18320;SDS011;54904;54.350;18.664;2022-12-19T05:48:47;44.27;;;15.47;;
18320;SDS011;54904;54.350;18.664;2022-12-19T05:51:14;51.23;;;17.47;;
18320;SDS011;54904;54.350;18.664;2022-12-19T05:53:42;47.27;;;16.67;;
18320;SDS011;54904;54.350;18.664;2022-12-19T05:56:10;50.80;;;17.37;;
18320;SDS011;54904;54.350;18.664;2022-12-19T05:58:38;51.40;;;17.63;;
18320;SDS011;54904;54.350;18.664;2022-12-19T06:01:09;54.60;;;16.87;;
18320;SDS011;54904;54.350;18.664;2022-12-19T06:03:37;63.20;;;20.37;;
18320;SDS011;54904;54.350;18.664;2022-12-19T06:06:08;49.03;;;17.23;;
18320;SDS011;54904;54.350;18.664;2022-12-19T06:08:36;42.57;;;15.43;;
18320;SDS011;54904;54.350;18.664;2022-12-19T06:11:05;47.50;;;16.43;;
18320;SDS011;54904;54.350;18.664;2022-12-19T06:13:34;53.07;;;18.57;;
18320;SDS011;54904;54.350;18.664;2022-12-19T06:16:02;51.33;;;17.93;;
18320;SDS011;54904;54.350;18.664;2022-12-19T06:18:32;40.97;;;14.63;;
18320;SDS011;54904;54.350;18.664;2022-12-19T06:21:00;43.97;;;15.87;;
18320;SDS011;54904;54.350;18.664;2022-12-19T06:23:30;51.23;;;17.73;;
18320;SDS011;54904;54.350;18.664;2022-12-19T06:25:58;43.70;;;15.67;;
18320;SDS011;54904;54.350;18.664;2022-12-19T06:28:26;44.93;;;15.27;;
18320;SDS011;54904;54.350;18.664;2022-12-19T06:30:54;47.47;;;16.23;;
18320;SDS011;54904;54.350;18.664;2022-12-19T06:33:22;48.20;;;17.73;;
18320;SDS011;54904;54.350;18.664;2022-12-19T06:35:57;50.77;;;17.33;;
18320;SDS011;54904;54.350;18.664;2022-12-19T06:38:24;46.10;;;15.50;;
18320;SDS011;54904;54.350;18.664;2022-12-19T06:40:52;46.47;;;16.10;;
18320;SDS011;54904;54.350;18.664;2022-12-19T06:43:36;48.13;;;16.77;;
18320;SDS011;54904;54.350;18.664;2022-12-19T06:46:04;58.23;;;17.80;;
18320;SDS011;54904;54.350;18.664;2022-12-19T06:48:31;49.83;;;17.17;;
18320;SDS011;54904;54.350;18.664;2022-12-19T06:51:00;47.17;;;16.37;;
18320;SDS011;54904;54.350;18.664;2022-12-19T06:53:27;50.67;;;16.40;;
18320;SDS011;54904;54.350;18.664;2022-12-19T06:55:55;50.63;;;18.23;;
18320;SDS011;54904;54.350;18.664;2022-12-19T06:58:24;42.37;;;15.97;;
18320;SDS011;54904;54.350;18.664;2022-12-19T07:00:51;48.90;;;16.90;;
18320;SDS011;54904;54.350;18.664;2022-12-19T07:03:21;51.23;;;17.10;;
18320;SDS011;54904;54.350;18.664;2022-12-19T07:05:50;49.83;;;17.17;;
18320;SDS011;54904;54.350;18.664;2022-12-19T07:08:19;48.20;;;17.23;;
18320;SDS011;54904;54.350;18.664;2022-12-19T07:10:46;49.43;;;16.60;;
18320;SDS011;54904;54.350;18.664;2022-12-19T07:13:13;44.80;;;17.00;;
18320;SDS011;54904;54.350;18.664;2022-12-19T07:15:41;50.83;;;17.07;;
18320;SDS011;54904;54.350;18.664;2022-12-19T07:18:08;41.67;;;14.13;;
18320;SDS011;54904;54.350;18.664;2022-12-19T07:20:36;47.97;;;15.73;;
18320;SDS011;54904;54.350;18.664;2022-12-19T07:23:06;49.03;;;17.17;;
18320;SDS011;54904;54.350;18.664;2022-12-19T07:25:39;45.50;;;15.53;;
18320;SDS011;54904;54.350;18.664;2022-12-19T07:28:07;42.40;;;14.30;;
18320;SDS011;54904;54.350;18.664;2022-12-19T07:30:34;44.37;;;15.37;;
18320;SDS011;54904;54.350;18.664;2022-12-19T07:33:02;44.33;;;15.03;;
18320;SDS011;54904;54.350;18.664;2022-12-19T07:35:29;38.70;;;14.37;;
18320;SDS011;54904;54.350;18.664;2022-12-19T07:38:00;46.60;;;15.57;;
18320;SDS011;54904;54.350;18.664;2022-12-19T07:40:27;40.87;;;14.70;;
18320;SDS011;54904;54.350;18.664;2022-12-19T07:42:59;40.23;;;14.10;;
18320;SDS011;54904;54.350;18.664;2022-12-19T07:45:26;38.13;;;14.30;;
18320;SDS011;54904;54.350;18.664;2022-12-19T07:47:53;38.67;;;14.37;;
18320;SDS011;54904;54.350;18.664;2022-12-19T07:50:21;37.03;;;14.00;;
18320;SDS011;54904;54.350;18.664;2022-12-19T07:52:48;37.13;;;13.33;;
18320;SDS011;54904;54.350;18.664;2022-12-19T07:55:15;43.73;;;15.17;;
18320;SDS011;54904;54.350;18.664;2022-12-19T07:57:42;39.13;;;14.50;;
18320;SDS011;54904;54.350;18.664;2022-12-19T08:00:11;39.40;;;13.77;;
18320;SDS011;54904;54.350;18.664;2022-12-19T08:02:38;37.67;;;13.40;;
18320;SDS011;54904;54.350;18.664;2022-12-19T08:05:06;39.73;;;14.00;;
18320;SDS011;54904;54.350;18.664;2022-12-19T08:07:33;37.57;;;13.53;;
18320;SDS011;54904;54.350;18.664;2022-12-19T08:10:00;39.23;;;14.87;;
18320;SDS011;54904;54.350;18.664;2022-12-19T08:12:27;41.90;;;15.43;;
18320;SDS011;54904;54.350;18.664;2022-12-19T08:14:54;41.77;;;15.00;;
18320;SDS011;54904;54.350;18.664;2022-12-19T08:17:22;38.53;;;14.27;;
18320;SDS011;54904;54.350;18.664;2022-12-19T08:19:50;37.07;;;13.33;;
18320;SDS011;54904;54.350;18.664;2022-12-19T08:22:17;38.00;;;14.37;;
18320;SDS011;54904;54.350;18.664;2022-12-19T08:24:44;37.70;;;14.40;;
18320;SDS011;54904;54.350;18.664;2022-12-19T08:27:11;35.87;;;13.70;;
18320;SDS011;54904;54.350;18.664;2022-12-19T08:29:38;39.63;;;14.03;;
18320;SDS011;54904;54.350;18.664;2022-12-19T08:32:05;41.57;;;14.40;;
18320;SDS011;54904;54.350;18.664;2022-12-19T08:34:34;41.83;;;15.73;;
18320;SDS011;54904;54.350;18.664;2022-12-19T08:37:01;36.40;;;13.97;;
18320;SDS011;54904;54.350;18.664;2022-12-19T08:39:28;42.00;;;14.27;;
18320;SDS011;54904;54.350;18.664;2022-12-19T08:41:55;40.50;;;14.07;;
18320;SDS011;54904;54.350;18.664;2022-12-19T08:44:22;32.20;;;12.57;;
18320;SDS011;54904;54.350;18.664;2022-12-19T08:46:49;40.87;;;13.87;;
18320;SDS011;54904;54.350;18.664;2022-12-19T08:49:16;38.70;;;13.80;;
18320;SDS011;54904;54.350;18.664;2022-12-19T08:51:45;38.30;;;14.23;;
18320;SDS011;54904;54.350;18.664;2022-12-19T08:54:12;37.43;;;14.57;;
18320;SDS011;54904;54.350;18.664;2022-12-19T08:56:39;40.67;;;14.50;;
18320;SDS011;54904;54.350;18.664;2022-12-19T08:59:06;42.30;;;15.27;;
18320;SDS011;54904;54.350;18.664;2022-12-19T09:01:33;41.07;;;14.13;;
18320;SDS011;54904;54.350;18.664;2022-12-19T09:04:00;36.00;;;14.93;;
18320;SDS011;54904;54.350;18.664;2022-12-19T09:06:27;39.43;;;14.63;;
18320;SDS011;54904;54.350;18.664;2022-12-19T09:08:56;35.67;;;13.67;;
18320;SDS011;54904;54.350;18.664;2022-12-19T09:11:23;40.40;;;14.77;;
18320;SDS011;54904;54.350;18.664;2022-12-19T09:13:50;41.83;;;14.77;;
18320;SDS011;54904;54.350;18.664;2022-12-19T09:16:22;42.50;;;14.63;;
18320;SDS011;54904;54.350;18.664;2022-12-19T09:18:51;37.60;;;14.37;;
18320;SDS011;54904;54.350;18.664;2022-12-19T09:21:20;34.07;;;13.67;;
18320;SDS011;54904;54.350;18.664;2022-12-19T09:23:49;34.93;;;13.30;;
18320;SDS011;54904;54.350;18.664;2022-12-19T09:26:19;33.00;;;13.37;;
18320;SDS011;54904;54.350;18.664;2022-12-19T09:28:48;38.07;;;13.33;;
18320;SDS011;54904;54.350;18.664;2022-12-19T09:31:16;29.43;;;12.33;;
18320;SDS011;54904;54.350;18.664;2022-12-19T09:33:45;28.87;;;12.17;;
18320;SDS011;54904;54.350;18.664;2022-12-19T09:36:12;34.37;;;13.33;;
18320;SDS011;54904;54.350;18.664;2022-12-19T09:38:40;30.93;;;12.20;;
18320;SDS011;54904;54.350;18.664;2022-12-19T09:41:15;36.17;;;13.87;;
18320;SDS011;54904;54.350;18.664;2022-12-19T09:43:59;29.23;;;12.50;;
18320;SDS011;54904;54.350;18.664;2022-12-19T09:46:38;27.77;;;11.80;;
18320;SDS011;54904;54.350;18.664;2022-12-19T09:49:13;33.23;;;12.50;;
18320;SDS011;54904;54.350;18.664;2022-12-19T09:51:44;29.93;;;11.90;;
18320;SDS011;54904;54.350;18.664;2022-12-19T09:54:19;27.63;;;11.33;;
18320;SDS011;54904;54.350;18.664;2022-12-19T09:56:51;32.67;;;12.33;;
18320;SDS011;54904;54.350;18.664;2022-12-19T09:59:24;29.60;;;11.83;;
18320;SDS011;54904;54.350;18.664;2022-12-19T10:01:54;28.80;;;12.07;;
18320;SDS011;54904;54.350;18.664;2022-12-19T10:04:26;30.40;;;12.53;;
18320;SDS011;54904;54.350;18.664;2022-12-19T10:06:58;30.97;;;12.77;;
18320;SDS011;54904;54.350;18.664;2022-12-19T10:09:27;30.93;;;12.50;;
18320;SDS011;54904;54.350;18.664;2022-12-19T10:12:07;34.87;;;12.00;;
18320;SDS011;54904;54.350;18.664;2022-12-19T10:14:55;31.80;;;13.73;;
18320;SDS011;54904;54.350;18.664;2022-12-19T10:17:30;30.13;;;13.47;;
18320;SDS011;54904;54.350;18.664;2022-12-19T10:20:14;29.53;;;12.43;;
18320;SDS011;54904;54.350;18.664;2022-12-19T10:22:51;36.27;;;13.87;;
18320;SDS011;54904;54.350;18.664;2022-12-19T10:25:28;33.90;;;14.67;;
18320;SDS011;54904;54.350;18.664;2022-12-19T10:28:11;31.57;;;13.10;;
18320;SDS011;54904;54.350;18.664;2022-12-19T10:30:48;31.97;;;13.93;;
18320;SDS011;54904;54.350;18.664;2022-12-19T10:33:22;32.53;;;12.50;;
18320;SDS011;54904;54.350;18.664;2022-12-19T10:35:57;36.47;;;14.77;;
18320;SDS011;54904;54.350;18.664;2022-12-19T10:38:26;31.50;;;13.47;;
18320;SDS011;54904;54.350;18.664;2022-12-19T10:41:03;34.57;;;13.17;;
18320;SDS011;54904;54.350;18.664;2022-12-19T10:43:44;28.33;;;12.67;;
18320;SDS011;54904;54.350;18.664;2022-12-19T10:46:33;35.33;;;14.53;;
18320;SDS011;54904;54.350;18.664;2022-12-19T10:49:10;34.07;;;14.47;;
18320;SDS011;54904;54.350;18.664;2022-12-19T10:51:39;32.80;;;14.03;;
18320;SDS011;54904;54.350;18.664;2022-12-19T10:54:07;32.17;;;13.63;;
18320;SDS011;54904;54.350;18.664;2022-12-19T10:56:34;36.20;;;14.37;;
18320;SDS011;54904;54.350;18.664;2022-12-19T10:59:03;36.47;;;14.10;;
18320;SDS011;54904;54.350;18.664;2022-12-19T11:01:41;31.43;;;13.17;;
18320;SDS011;54904;54.350;18.664;2022-12-19T11:07:05;40.20;;;14.10;;
18320;SDS011;54904;54.350;18.664;2022-12-19T11:09:43;37.13;;;13.73;;
18320;SDS011;54904;54.350;18.664;2022-12-19T11:12:13;33.83;;;13.40;;
18320;SDS011;54904;54.350;18.664;2022-12-19T11:14:50;34.23;;;13.70;;
18320;SDS011;54904;54.350;18.664;2022-12-19T11:17:41;39.37;;;14.10;;
18320;SDS011;54904;54.350;18.664;2022-12-19T11:20:12;37.37;;;14.13;;
18320;SDS011;54904;54.350;18.664;2022-12-19T11:22:45;40.87;;;15.33;;
18320;SDS011;54904;54.350;18.664;2022-12-19T11:25:20;35.97;;;13.83;;
18320;SDS011;54904;54.350;18.664;2022-12-19T11:27:55;37.67;;;14.43;;
18320;SDS011;54904;54.350;18.664;2022-12-19T11:30:25;38.33;;;13.57;;
18320;SDS011;54904;54.350;18.664;2022-12-19T11:33:05;38.63;;;14.23;;
18320;SDS011;54904;54.350;18.664;2022-12-19T11:35:44;34.60;;;14.30;;
18320;SDS011;54904;54.350;18.664;2022-12-19T11:38:13;36.63;;;13.87;;
18320;SDS011;54904;54.350;18.664;2022-12-19T11:40:44;38.87;;;14.10;;
18320;SDS011;54904;54.350;18.664;2022-12-19T11:43:17;34.60;;;13.20;;
18320;SDS011;54904;54.350;18.664;2022-12-19T11:45:53;40.97;;;14.87;;
18320;SDS011;54904;54.350;18.664;2022-12-19T11:48:28;36.13;;;14.47;;
18320;SDS011;54904;54.350;18.664;2022-12-19T11:51:04;33.63;;;13.97;;
18320;SDS011;54904;54.350;18.664;2022-12-19T11:53:41;35.27;;;14.23;;
18320;SDS011;54904;54.350;18.664;2022-12-19T11:56:17;42.07;;;14.37;;
18320;SDS011;54904;54.350;18.664;2022-12-19T11:58:47;32.40;;;13.73;;
18320;SDS011;54904;54.350;18.664;2022-12-19T12:01:21;36.03;;;13.50;;
18320;SDS011;54904;54.350;18.664;2022-12-19T12:04:00;33.77;;;13.43;;
18320;SDS011;54904;54.350;18.664;2022-12-19T12:06:39;39.87;;;15.73;;
18320;SDS011;54904;54.350;18.664;2022-12-19T12:09:12;39.30;;;14.57;;
18320;SDS011;54904;54.350;18.664;2022-12-19T12:11:49;37.40;;;14.90;;
18320;SDS011;54904;54.350;18.664;2022-12-19T12:14:20;42.70;;;15.53;;
18320;SDS011;54904;54.350;18.664;2022-12-19T12:16:55;37.67;;;15.37;;
18320;SDS011;54904;54.350;18.664;2022-12-19T12:19:34;36.43;;;14.77;;
18320;SDS011;54904;54.350;18.664;2022-12-19T12:22:16;39.10;;;14.53;;
18320;SDS011;54904;54.350;18.664;2022-12-19T12:24:58;36.03;;;14.00;;
18320;SDS011;54904;54.350;18.664;2022-12-19T12:27:37;31.30;;;13.03;;
18320;SDS011;54904;54.350;18.664;2022-12-19T12:30:14;41.17;;;15.23;;
18320;SDS011;54904;54.350;18.664;2022-12-19T12:32:53;43.50;;;16.40;;
18320;SDS011;54904;54.350;18.664;2022-12-19T12:35:32;40.97;;;16.33;;
18320;SDS011;54904;54.350;18.664;2022-12-19T12:38:08;34.93;;;14.27;;
18320;SDS011;54904;54.350;18.664;2022-12-19T12:40:56;35.17;;;13.33;;
18320;SDS011;54904;54.350;18.664;2022-12-19T12:43:37;39.10;;;13.70;;
18320;SDS011;54904;54.350;18.664;2022-12-19T12:46:11;41.67;;;15.60;;
18320;SDS011;54904;54.350;18.664;2022-12-19T12:48:44;46.83;;;16.57;;
18320;SDS011;54904;54.350;18.664;2022-12-19T12:51:15;40.10;;;15.43;;
18320;SDS011;54904;54.350;18.664;2022-12-19T12:53:44;39.00;;;14.50;;
18320;SDS011;54904;54.350;18.664;2022-12-19T12:56:13;39.20;;;15.07;;
18320;SDS011;54904;54.350;18.664;2022-12-19T12:58:44;38.97;;;15.70;;
18320;SDS011;54904;54.350;18.664;2022-12-19T13:01:33;41.20;;;14.67;;
18320;SDS011;54904;54.350;18.664;2022-12-19T13:04:04;38.90;;;14.57;;
18320;SDS011;54904;54.350;18.664;2022-12-19T13:09:42;44.47;;;15.77;;
18320;SDS011;54904;54.350;18.664;2022-12-19T13:12:15;46.40;;;17.07;;
18320;SDS011;54904;54.350;18.664;2022-12-19T13:15:28;38.73;;;15.47;;
18320;SDS011;54904;54.350;18.664;2022-12-19T13:18:07;42.10;;;15.73;;
18320;SDS011;54904;54.350;18.664;2022-12-19T13:21:07;42.50;;;15.57;;
18320;SDS011;54904;54.350;18.664;2022-12-19T13:26:48;33.13;;;13.53;;
18320;SDS011;54904;54.350;18.664;2022-12-19T13:32:18;40.17;;;15.53;;
18320;SDS011;54904;54.350;18.664;2022-12-19T13:34:53;40.53;;;15.40;;
18320;SDS011;54904;54.350;18.664;2022-12-19T13:37:27;38.17;;;15.80;;
18320;SDS011;54904;54.350;18.664;2022-12-19T13:40:00;42.53;;;16.23;;
18320;SDS011;54904;54.350;18.664;2022-12-19T13:42:37;45.50;;;16.37;;
18320;SDS011;54904;54.350;18.664;2022-12-19T13:45:32;39.43;;;15.43;;
18320;SDS011;54904;54.350;18.664;2022-12-19T13:47:59;41.30;;;16.80;;
18320;SDS011;54904;54.350;18.664;2022-12-19T13:50:30;41.30;;;16.13;;
18320;SDS011;54904;54.350;18.664;2022-12-19T13:53:07;34.90;;;15.33;;
18320;SDS011;54904;54.350;18.664;2022-12-19T13:55:37;50.03;;;17.07;;
18320;SDS011;54904;54.350;18.664;2022-12-19T13:58:05;47.27;;;18.23;;
18320;SDS011;54904;54.350;18.664;2022-12-19T14:00:33;36.97;;;15.93;;
18320;SDS011;54904;54.350;18.664;2022-12-19T14:03:01;42.50;;;16.67;;
18320;SDS011;54904;54.350;18.664;2022-12-19T14:05:29;37.73;;;15.30;;
18320;SDS011;54904;54.350;18.664;2022-12-19T14:07:58;40.20;;;15.97;;
18320;SDS011;54904;54.350;18.664;2022-12-19T14:10:31;36.13;;;15.13;;
18320;SDS011;54904;54.350;18.664;2022-12-19T14:13:02;39.93;;;14.90;;
18320;SDS011;54904;54.350;18.664;2022-12-19T14:15:48;38.50;;;15.43;;
18320;SDS011;54904;54.350;18.664;2022-12-19T14:18:17;45.60;;;15.53;;
18320;SDS011;54904;54.350;18.664;2022-12-19T14:20:46;44.87;;;16.07;;
18320;SDS011;54904;54.350;18.664;2022-12-19T14:23:15;40.13;;;15.60;;
18320;SDS011;54904;54.350;18.664;2022-12-19T14:25:44;37.30;;;15.33;;
18320;SDS011;54904;54.350;18.664;2022-12-19T14:28:14;41.43;;;15.63;;
18320;SDS011;54904;54.350;18.664;2022-12-19T14:30:44;37.43;;;15.57;;
18320;SDS011;54904;54.350;18.664;2022-12-19T14:33:15;44.20;;;15.90;;
18320;SDS011;54904;54.350;18.664;2022-12-19T14:35:45;45.80;;;15.93;;
18320;SDS011;54904;54.350;18.664;2022-12-19T14:38:18;41.53;;;16.53;;
18320;SDS011;54904;54.350;18.664;2022-12-19T14:40:47;39.90;;;15.57;;
18320;SDS011;54904;54.350;18.664;2022-12-19T14:43:15;40.83;;;16.20;;
18320;SDS011;54904;54.350;18.664;2022-12-19T14:46:21;39.23;;;15.50;;
18320;SDS011;54904;54.350;18.664;2022-12-19T14:48:52;41.23;;;15.40;;